sensor_id;sensor_type;location;lat;lon;timestamp;P1;durP1;ratioP1;P2;durP2;ratioP2
35330;SDS011;21441;52.190;20.910;2023-12-20T00:01:42;25.52;;;16.63;;
35330;SDS011;21441;52.190;20.910;2023-12-20T00:04:09;24.73;;;16.33;;
35330;SDS011;21441;52.190;20.910;2023-12-20T00:06:36;22.00;;;15.20;;
35330;SDS011;21441;52.190;20.910;2023-12-20T00:09:03;23.63;;;16.73;;
35330;SDS011;21441;52.190;20.910;2023-12-20T00:11:31;21.95;;;16.77;;
35330;SDS011;21441;52.190;20.910;2023-12-20T00:13:59;21.52;;;15.68;;
35330;SDS011;21441;52.190;20.910;2023-12-20T00:16:26;21.67;;;16.67;;
35330;SDS011;21441;52.190;20.910;2023-12-20T00:18:53;21.48;;;15.10;;
35330;SDS011;21441;52.190;20.910;2023-12-20T00:21:21;22.98;;;15.98;;
35330;SDS011;21441;52.190;20.910;2023-12-20T00:23:48;24.95;;;15.38;;
35330;SDS011;21441;52.190;20.910;2023-12-20T00:26:15;18.40;;;13.73;;
35330;SDS011;21441;52.190;20.910;2023-12-20T00:28:41;22.13;;;15.82;;
35330;SDS011;21441;52.190;20.910;2023-12-20T00:31:10;20.08;;;14.48;;
35330;SDS011;21441;52.190;20.910;2023-12-20T00:33:37;16.60;;;12.98;;
35330;SDS011;21441;52.190;20.910;2023-12-20T00:36:05;19.98;;;14.48;;
35330;SDS011;21441;52.190;20.910;2023-12-20T00:38:32;17.92;;;13.70;;
35330;SDS011;21441;52.190;20.910;2023-12-20T00:41:00;19.88;;;14.00;;
35330;SDS011;21441;52.190;20.910;2023-12-20T00:43:27;24.08;;;15.77;;
35330;SDS011;21441;52.190;20.910;2023-12-20T00:45:54;22.65;;;15.70;;
35330;SDS011;21441;52.190;20.910;2023-12-20T00:48:23;21.10;;;14.85;;
35330;SDS011;21441;52.190;20.910;2023-12-20T00:50:50;18.20;;;14.88;;
35330;SDS011;21441;52.190;20.910;2023-12-20T00:53:17;17.85;;;14.75;;
35330;SDS011;21441;52.190;20.910;2023-12-20T00:55:44;19.65;;;15.15;;
35330;SDS011;21441;52.190;20.910;2023-12-20T00:58:11;20.42;;;13.57;;
35330;SDS011;21441;52.190;20.910;2023-12-20T01:00:41;17.63;;;13.40;;
35330;SDS011;21441;52.190;20.910;2023-12-20T01:03:08;21.48;;;14.20;;
35330;SDS011;21441;52.190;20.910;2023-12-20T01:05:37;18.27;;;15.02;;
35330;SDS011;21441;52.190;20.910;2023-12-20T01:08:04;19.05;;;14.38;;
35330;SDS011;21441;52.190;20.910;2023-12-20T01:10:32;18.75;;;12.88;;
35330;SDS011;21441;52.190;20.910;2023-12-20T01:12:59;16.75;;;13.75;;
35330;SDS011;21441;52.190;20.910;2023-12-20T01:15:25;17.55;;;12.55;;
35330;SDS011;21441;52.190;20.910;2023-12-20T01:17:52;15.18;;;11.35;;
35330;SDS011;21441;52.190;20.910;2023-12-20T01:20:19;19.23;;;13.60;;
35330;SDS011;21441;52.190;20.910;2023-12-20T01:22:48;18.20;;;12.35;;
35330;SDS011;21441;52.190;20.910;2023-12-20T01:25:15;16.13;;;12.45;;
35330;SDS011;21441;52.190;20.910;2023-12-20T01:27:42;14.32;;;12.70;;
35330;SDS011;21441;52.190;20.910;2023-12-20T01:30:10;17.23;;;13.25;;
35330;SDS011;21441;52.190;20.910;2023-12-20T01:32:38;16.15;;;13.80;;
35330;SDS011;21441;52.190;20.910;2023-12-20T01:35:05;17.27;;;12.90;;
35330;SDS011;21441;52.190;20.910;2023-12-20T01:37:32;17.58;;;13.70;;
35330;SDS011;21441;52.190;20.910;2023-12-20T01:40:01;13.07;;;10.75;;
35330;SDS011;21441;52.190;20.910;2023-12-20T01:42:28;15.02;;;11.20;;
35330;SDS011;21441;52.190;20.910;2023-12-20T01:44:56;15.05;;;11.77;;
35330;SDS011;21441;52.190;20.910;2023-12-20T01:47:23;15.77;;;11.90;;
35330;SDS011;21441;52.190;20.910;2023-12-20T01:49:50;17.77;;;12.43;;
35330;SDS011;21441;52.190;20.910;2023-12-20T01:52:18;16.23;;;12.65;;
35330;SDS011;21441;52.190;20.910;2023-12-20T01:54:46;12.55;;;9.93;;
35330;SDS011;21441;52.190;20.910;2023-12-20T01:57:15;15.65;;;11.20;;
35330;SDS011;21441;52.190;20.910;2023-12-20T01:59:43;17.55;;;12.80;;
35330;SDS011;21441;52.190;20.910;2023-12-20T02:02:11;13.63;;;11.30;;
35330;SDS011;21441;52.190;20.910;2023-12-20T02:04:38;14.77;;;11.35;;
35330;SDS011;21441;52.190;20.910;2023-12-20T02:07:05;14.82;;;12.00;;
35330;SDS011;21441;52.190;20.910;2023-12-20T02:09:34;15.85;;;11.77;;
35330;SDS011;21441;52.190;20.910;2023-12-20T02:12:03;16.65;;;11.82;;
35330;SDS011;21441;52.190;20.910;2023-12-20T02:14:32;17.63;;;13.95;;
35330;SDS011;21441;52.190;20.910;2023-12-20T02:17:00;15.13;;;13.45;;
35330;SDS011;21441;52.190;20.910;2023-12-20T02:19:27;19.83;;;15.00;;
35330;SDS011;21441;52.190;20.910;2023-12-20T02:22:06;18.10;;;14.40;;
35330;SDS011;21441;52.190;20.910;2023-12-20T02:24:34;14.40;;;11.98;;
35330;SDS011;21441;52.190;20.910;2023-12-20T02:27:01;17.27;;;13.93;;
35330;SDS011;21441;52.190;20.910;2023-12-20T02:29:28;16.70;;;12.48;;
35330;SDS011;21441;52.190;20.910;2023-12-20T02:31:55;20.33;;;12.43;;
35330;SDS011;21441;52.190;20.910;2023-12-20T02:34:23;14.52;;;10.77;;
35330;SDS011;21441;52.190;20.910;2023-12-20T02:36:50;14.70;;;10.75;;
35330;SDS011;21441;52.190;20.910;2023-12-20T02:39:19;11.93;;;9.40;;
35330;SDS011;21441;52.190;20.910;2023-12-20T02:41:46;14.02;;;9.48;;
35330;SDS011;21441;52.190;20.910;2023-12-20T02:44:14;11.73;;;9.27;;
35330;SDS011;21441;52.190;20.910;2023-12-20T02:46:41;11.10;;;7.10;;
35330;SDS011;21441;52.190;20.910;2023-12-20T02:49:08;11.88;;;8.20;;
35330;SDS011;21441;52.190;20.910;2023-12-20T02:51:35;8.63;;;6.88;;
35330;SDS011;21441;52.190;20.910;2023-12-20T02:54:04;10.38;;;7.40;;
35330;SDS011;21441;52.190;20.910;2023-12-20T02:56:33;10.00;;;6.35;;
35330;SDS011;21441;52.190;20.910;2023-12-20T02:59:00;8.60;;;6.35;;
35330;SDS011;21441;52.190;20.910;2023-12-20T03:01:30;7.22;;;6.20;;
35330;SDS011;21441;52.190;20.910;2023-12-20T03:03:58;6.97;;;5.75;;
35330;SDS011;21441;52.190;20.910;2023-12-20T03:06:25;6.45;;;4.68;;
35330;SDS011;21441;52.190;20.910;2023-12-20T03:08:53;6.85;;;5.38;;
35330;SDS011;21441;52.190;20.910;2023-12-20T03:11:20;7.60;;;5.30;;
35330;SDS011;21441;52.190;20.910;2023-12-20T03:13:49;6.53;;;5.50;;
35330;SDS011;21441;52.190;20.910;2023-12-20T03:16:16;6.32;;;5.15;;
35330;SDS011;21441;52.190;20.910;2023-12-20T03:18:43;5.85;;;4.55;;
35330;SDS011;21441;52.190;20.910;2023-12-20T03:21:10;4.57;;;4.15;;
35330;SDS011;21441;52.190;20.910;2023-12-20T03:23:37;5.47;;;4.45;;
35330;SDS011;21441;52.190;20.910;2023-12-20T03:26:06;9.75;;;5.03;;
35330;SDS011;21441;52.190;20.910;2023-12-20T03:28:34;8.43;;;4.82;;
35330;SDS011;21441;52.190;20.910;2023-12-20T03:31:03;8.10;;;6.22;;
35330;SDS011;21441;52.190;20.910;2023-12-20T03:33:31;6.88;;;4.90;;
35330;SDS011;21441;52.190;20.910;2023-12-20T03:35:58;6.43;;;4.82;;
35330;SDS011;21441;52.190;20.910;2023-12-20T03:38:25;8.32;;;6.47;;
35330;SDS011;21441;52.190;20.910;2023-12-20T03:40:52;11.73;;;5.95;;
35330;SDS011;21441;52.190;20.910;2023-12-20T03:43:19;8.32;;;6.13;;
35330;SDS011;21441;52.190;20.910;2023-12-20T03:45:46;8.93;;;7.03;;
35330;SDS011;21441;52.190;20.910;2023-12-20T03:48:15;7.63;;;5.97;;
35330;SDS011;21441;52.190;20.910;2023-12-20T03:50:42;9.40;;;6.82;;
35330;SDS011;21441;52.190;20.910;2023-12-20T03:53:10;7.18;;;6.38;;
35330;SDS011;21441;52.190;20.910;2023-12-20T03:55:37;10.07;;;6.35;;
35330;SDS011;21441;52.190;20.910;2023-12-20T03:58:04;9.75;;;6.78;;
35330;SDS011;21441;52.190;20.910;2023-12-20T04:00:33;8.50;;;6.68;;
35330;SDS011;21441;52.190;20.910;2023-12-20T04:03:00;10.50;;;6.97;;
35330;SDS011;21441;52.190;20.910;2023-12-20T04:05:28;10.30;;;7.35;;
35330;SDS011;21441;52.190;20.910;2023-12-20T04:07:55;9.75;;;7.93;;
35330;SDS011;21441;52.190;20.910;2023-12-20T04:10:22;9.73;;;8.27;;
35330;SDS011;21441;52.190;20.910;2023-12-20T04:12:49;10.55;;;9.13;;
35330;SDS011;21441;52.190;20.910;2023-12-20T04:15:16;11.48;;;8.43;;
35330;SDS011;21441;52.190;20.910;2023-12-20T04:17:43;13.02;;;9.52;;
35330;SDS011;21441;52.190;20.910;2023-12-20T04:20:10;13.35;;;10.18;;
35330;SDS011;21441;52.190;20.910;2023-12-20T04:22:39;13.02;;;10.63;;
35330;SDS011;21441;52.190;20.910;2023-12-20T04:25:06;13.55;;;10.13;;
35330;SDS011;21441;52.190;20.910;2023-12-20T04:27:34;15.40;;;11.50;;
35330;SDS011;21441;52.190;20.910;2023-12-20T04:30:01;13.23;;;10.30;;
35330;SDS011;21441;52.190;20.910;2023-12-20T04:32:28;13.85;;;11.27;;
35330;SDS011;21441;52.190;20.910;2023-12-20T04:34:55;15.50;;;11.45;;
35330;SDS011;21441;52.190;20.910;2023-12-20T04:37:22;13.38;;;10.25;;
35330;SDS011;21441;52.190;20.910;2023-12-20T04:39:51;13.82;;;9.65;;
35330;SDS011;21441;52.190;20.910;2023-12-20T04:42:18;12.45;;;9.63;;
35330;SDS011;21441;52.190;20.910;2023-12-20T04:44:45;12.18;;;9.23;;
35330;SDS011;21441;52.190;20.910;2023-12-20T04:47:12;13.25;;;11.23;;
35330;SDS011;21441;52.190;20.910;2023-12-20T04:49:39;15.30;;;10.35;;
35330;SDS011;21441;52.190;20.910;2023-12-20T04:52:06;13.75;;;10.00;;
35330;SDS011;21441;52.190;20.910;2023-12-20T04:54:34;13.82;;;9.93;;
35330;SDS011;21441;52.190;20.910;2023-12-20T04:57:01;14.30;;;9.88;;
35330;SDS011;21441;52.190;20.910;2023-12-20T04:59:29;13.75;;;10.38;;
35330;SDS011;21441;52.190;20.910;2023-12-20T05:01:56;15.77;;;11.55;;
35330;SDS011;21441;52.190;20.910;2023-12-20T05:04:24;14.02;;;9.80;;
35330;SDS011;21441;52.190;20.910;2023-12-20T05:06:51;13.85;;;11.55;;
35330;SDS011;21441;52.190;20.910;2023-12-20T05:09:18;14.30;;;10.68;;
35330;SDS011;21441;52.190;20.910;2023-12-20T05:11:45;14.95;;;10.82;;
35330;SDS011;21441;52.190;20.910;2023-12-20T05:14:13;15.20;;;11.18;;
35330;SDS011;21441;52.190;20.910;2023-12-20T05:16:41;15.13;;;11.57;;
35330;SDS011;21441;52.190;20.910;2023-12-20T05:19:08;15.32;;;11.25;;
35330;SDS011;21441;52.190;20.910;2023-12-20T05:21:35;14.43;;;10.50;;
35330;SDS011;21441;52.190;20.910;2023-12-20T05:24:02;17.85;;;10.70;;
35330;SDS011;21441;52.190;20.910;2023-12-20T05:26:29;15.10;;;11.50;;
35330;SDS011;21441;52.190;20.910;2023-12-20T05:28:56;17.60;;;12.85;;
35330;SDS011;21441;52.190;20.910;2023-12-20T05:31:25;17.98;;;12.18;;
35330;SDS011;21441;52.190;20.910;2023-12-20T05:33:52;16.52;;;11.07;;
35330;SDS011;21441;52.190;20.910;2023-12-20T05:36:20;13.40;;;9.77;;
35330;SDS011;21441;52.190;20.910;2023-12-20T05:38:46;17.02;;;12.63;;
35330;SDS011;21441;52.190;20.910;2023-12-20T05:41:14;16.60;;;12.20;;
35330;SDS011;21441;52.190;20.910;2023-12-20T05:43:41;19.17;;;13.02;;
35330;SDS011;21441;52.190;20.910;2023-12-20T05:46:09;25.13;;;14.30;;
35330;SDS011;21441;52.190;20.910;2023-12-20T05:48:38;16.67;;;12.18;;
35330;SDS011;21441;52.190;20.910;2023-12-20T05:51:06;18.45;;;13.73;;
35330;SDS011;21441;52.190;20.910;2023-12-20T05:53:33;17.70;;;12.48;;
35330;SDS011;21441;52.190;20.910;2023-12-20T05:56:00;19.42;;;12.98;;
35330;SDS011;21441;52.190;20.910;2023-12-20T05:58:27;18.58;;;12.98;;
35330;SDS011;21441;52.190;20.910;2023-12-20T06:00:55;21.08;;;14.52;;
35330;SDS011;21441;52.190;20.910;2023-12-20T06:03:21;20.05;;;14.35;;
35330;SDS011;21441;52.190;20.910;2023-12-20T06:05:50;21.80;;;15.35;;
35330;SDS011;21441;52.190;20.910;2023-12-20T06:08:17;22.65;;;15.20;;
35330;SDS011;21441;52.190;20.910;2023-12-20T06:10:44;20.33;;;14.30;;
35330;SDS011;21441;52.190;20.910;2023-12-20T06:13:11;26.33;;;18.10;;
35330;SDS011;21441;52.190;20.910;2023-12-20T06:15:39;25.92;;;16.77;;
35330;SDS011;21441;52.190;20.910;2023-12-20T06:18:06;25.55;;;16.63;;
35330;SDS011;21441;52.190;20.910;2023-12-20T06:20:34;18.88;;;14.00;;
35330;SDS011;21441;52.190;20.910;2023-12-20T06:23:03;24.08;;;15.88;;
35330;SDS011;21441;52.190;20.910;2023-12-20T06:25:31;19.10;;;14.98;;
35330;SDS011;21441;52.190;20.910;2023-12-20T06:27:58;21.33;;;13.73;;
35330;SDS011;21441;52.190;20.910;2023-12-20T06:30:25;17.40;;;12.02;;
35330;SDS011;21441;52.190;20.910;2023-12-20T06:32:53;16.52;;;11.32;;
35330;SDS011;21441;52.190;20.910;2023-12-20T06:35:20;17.95;;;11.85;;
35330;SDS011;21441;52.190;20.910;2023-12-20T06:37:47;15.63;;;10.57;;
35330;SDS011;21441;52.190;20.910;2023-12-20T06:40:16;18.75;;;13.02;;
35330;SDS011;21441;52.190;20.910;2023-12-20T06:42:43;19.13;;;12.18;;
35330;SDS011;21441;52.190;20.910;2023-12-20T06:45:10;17.08;;;11.82;;
35330;SDS011;21441;52.190;20.910;2023-12-20T06:47:38;20.05;;;13.07;;
35330;SDS011;21441;52.190;20.910;2023-12-20T06:50:05;20.85;;;12.90;;
35330;SDS011;21441;52.190;20.910;2023-12-20T06:52:34;18.25;;;14.38;;
35330;SDS011;21441;52.190;20.910;2023-12-20T06:55:01;22.50;;;15.82;;
35330;SDS011;21441;52.190;20.910;2023-12-20T06:57:30;22.02;;;14.77;;
35330;SDS011;21441;52.190;20.910;2023-12-20T06:59:58;22.58;;;15.73;;
35330;SDS011;21441;52.190;20.910;2023-12-20T07:02:24;22.67;;;15.50;;
35330;SDS011;21441;52.190;20.910;2023-12-20T07:04:55;22.67;;;15.65;;
35330;SDS011;21441;52.190;20.910;2023-12-20T07:07:21;22.92;;;14.77;;
35330;SDS011;21441;52.190;20.910;2023-12-20T07:09:50;25.38;;;15.90;;
35330;SDS011;21441;52.190;20.910;2023-12-20T07:12:17;24.08;;;16.50;;
35330;SDS011;21441;52.190;20.910;2023-12-20T07:14:46;22.88;;;15.25;;
35330;SDS011;21441;52.190;20.910;2023-12-20T07:17:13;28.90;;;19.42;;
35330;SDS011;21441;52.190;20.910;2023-12-20T07:19:41;24.40;;;16.70;;
35330;SDS011;21441;52.190;20.910;2023-12-20T07:22:08;24.95;;;16.05;;
35330;SDS011;21441;52.190;20.910;2023-12-20T07:24:35;20.48;;;14.55;;
35330;SDS011;21441;52.190;20.910;2023-12-20T07:27:03;22.95;;;17.05;;
35330;SDS011;21441;52.190;20.910;2023-12-20T07:29:30;20.23;;;15.07;;
35330;SDS011;21441;52.190;20.910;2023-12-20T07:32:00;20.98;;;14.18;;
35330;SDS011;21441;52.190;20.910;2023-12-20T07:34:30;16.33;;;11.90;;
35330;SDS011;21441;52.190;20.910;2023-12-20T07:36:57;14.48;;;10.57;;
35330;SDS011;21441;52.190;20.910;2023-12-20T07:39:24;20.85;;;12.98;;
35330;SDS011;21441;52.190;20.910;2023-12-20T07:41:51;16.98;;;12.18;;
35330;SDS011;21441;52.190;20.910;2023-12-20T07:44:18;15.70;;;11.18;;
35330;SDS011;21441;52.190;20.910;2023-12-20T07:46:45;17.92;;;11.82;;
35330;SDS011;21441;52.190;20.910;2023-12-20T07:49:15;17.27;;;12.43;;
35330;SDS011;21441;52.190;20.910;2023-12-20T07:51:42;17.17;;;10.60;;
35330;SDS011;21441;52.190;20.910;2023-12-20T07:54:09;15.60;;;11.00;;
35330;SDS011;21441;52.190;20.910;2023-12-20T07:56:36;16.75;;;10.68;;
35330;SDS011;21441;52.190;20.910;2023-12-20T07:59:05;13.32;;;10.10;;
35330;SDS011;21441;52.190;20.910;2023-12-20T08:01:32;15.20;;;9.98;;
35330;SDS011;21441;52.190;20.910;2023-12-20T08:03:59;14.88;;;9.18;;
35330;SDS011;21441;52.190;20.910;2023-12-20T08:06:28;16.00;;;9.75;;
35330;SDS011;21441;52.190;20.910;2023-12-20T08:08:55;16.38;;;11.77;;
35330;SDS011;21441;52.190;20.910;2023-12-20T08:11:22;15.52;;;11.52;;
35330;SDS011;21441;52.190;20.910;2023-12-20T08:13:50;16.30;;;11.45;;
35330;SDS011;21441;52.190;20.910;2023-12-20T08:16:17;15.57;;;10.50;;
35330;SDS011;21441;52.190;20.910;2023-12-20T08:18:44;16.13;;;11.75;;
35330;SDS011;21441;52.190;20.910;2023-12-20T08:21:11;16.27;;;11.15;;
35330;SDS011;21441;52.190;20.910;2023-12-20T08:23:40;19.25;;;12.20;;
35330;SDS011;21441;52.190;20.910;2023-12-20T08:26:07;15.43;;;10.10;;
35330;SDS011;21441;52.190;20.910;2023-12-20T08:28:35;20.10;;;14.07;;
35330;SDS011;21441;52.190;20.910;2023-12-20T08:31:03;17.10;;;11.65;;
35330;SDS011;21441;52.190;20.910;2023-12-20T08:33:31;17.35;;;11.13;;
35330;SDS011;21441;52.190;20.910;2023-12-20T08:35:58;17.58;;;11.88;;
35330;SDS011;21441;52.190;20.910;2023-12-20T08:38:26;16.92;;;11.43;;
35330;SDS011;21441;52.190;20.910;2023-12-20T08:40:54;13.68;;;9.68;;
35330;SDS011;21441;52.190;20.910;2023-12-20T08:43:21;13.90;;;8.75;;
35330;SDS011;21441;52.190;20.910;2023-12-20T08:45:48;12.88;;;9.10;;
35330;SDS011;21441;52.190;20.910;2023-12-20T08:48:16;15.05;;;9.88;;
35330;SDS011;21441;52.190;20.910;2023-12-20T08:50:42;12.85;;;8.48;;
35330;SDS011;21441;52.190;20.910;2023-12-20T08:53:10;11.55;;;8.40;;
35330;SDS011;21441;52.190;20.910;2023-12-20T08:55:37;13.50;;;9.43;;
35330;SDS011;21441;52.190;20.910;2023-12-20T08:58:06;15.30;;;8.20;;
35330;SDS011;21441;52.190;20.910;2023-12-20T09:00:33;11.30;;;7.55;;
35330;SDS011;21441;52.190;20.910;2023-12-20T09:03:00;11.70;;;7.82;;
35330;SDS011;21441;52.190;20.910;2023-12-20T09:05:28;9.15;;;7.00;;
35330;SDS011;21441;52.190;20.910;2023-12-20T09:07:55;9.38;;;7.22;;
35330;SDS011;21441;52.190;20.910;2023-12-20T09:10:23;11.02;;;7.57;;
35330;SDS011;21441;52.190;20.910;2023-12-20T09:12:51;8.30;;;6.65;;
35330;SDS011;21441;52.190;20.910;2023-12-20T09:15:23;10.35;;;7.78;;
35330;SDS011;21441;52.190;20.910;2023-12-20T09:17:50;10.43;;;7.47;;
35330;SDS011;21441;52.190;20.910;2023-12-20T09:20:17;12.77;;;7.63;;
35330;SDS011;21441;52.190;20.910;2023-12-20T09:22:45;10.38;;;6.82;;
35330;SDS011;21441;52.190;20.910;2023-12-20T09:25:13;10.75;;;7.32;;
35330;SDS011;21441;52.190;20.910;2023-12-20T09:27:41;7.80;;;6.35;;
35330;SDS011;21441;52.190;20.910;2023-12-20T09:30:08;10.45;;;6.85;;
35330;SDS011;21441;52.190;20.910;2023-12-20T09:32:37;10.63;;;7.35;;
35330;SDS011;21441;52.190;20.910;2023-12-20T09:35:05;10.05;;;6.93;;
35330;SDS011;21441;52.190;20.910;2023-12-20T09:37:34;9.82;;;6.85;;
35330;SDS011;21441;52.190;20.910;2023-12-20T09:40:01;10.38;;;7.45;;
35330;SDS011;21441;52.190;20.910;2023-12-20T09:42:30;10.93;;;7.95;;
35330;SDS011;21441;52.190;20.910;2023-12-20T09:45:06;11.85;;;7.63;;
35330;SDS011;21441;52.190;20.910;2023-12-20T09:47:35;9.75;;;7.13;;
35330;SDS011;21441;52.190;20.910;2023-12-20T09:50:04;9.23;;;7.22;;
35330;SDS011;21441;52.190;20.910;2023-12-20T09:52:33;9.07;;;6.47;;
35330;SDS011;21441;52.190;20.910;2023-12-20T09:55:03;10.23;;;7.63;;
35330;SDS011;21441;52.190;20.910;2023-12-20T09:57:31;9.50;;;6.80;;
35330;SDS011;21441;52.190;20.910;2023-12-20T09:59:58;11.02;;;8.65;;
35330;SDS011;21441;52.190;20.910;2023-12-20T10:02:26;9.68;;;7.53;;
35330;SDS011;21441;52.190;20.910;2023-12-20T10:04:54;12.43;;;8.13;;
35330;SDS011;21441;52.190;20.910;2023-12-20T10:07:23;9.43;;;7.45;;
35330;SDS011;21441;52.190;20.910;2023-12-20T10:09:51;9.73;;;7.28;;
35330;SDS011;21441;52.190;20.910;2023-12-20T10:12:21;10.90;;;7.85;;
35330;SDS011;21441;52.190;20.910;2023-12-20T10:14:48;10.80;;;8.32;;
35330;SDS011;21441;52.190;20.910;2023-12-20T10:17:16;10.55;;;7.80;;
35330;SDS011;21441;52.190;20.910;2023-12-20T10:19:43;12.38;;;7.88;;
35330;SDS011;21441;52.190;20.910;2023-12-20T10:22:11;16.77;;;9.18;;
35330;SDS011;21441;52.190;20.910;2023-12-20T10:24:39;12.20;;;8.45;;
35330;SDS011;21441;52.190;20.910;2023-12-20T10:27:07;11.43;;;9.15;;
35330;SDS011;21441;52.190;20.910;2023-12-20T10:29:36;14.07;;;9.93;;
35330;SDS011;21441;52.190;20.910;2023-12-20T10:32:22;11.75;;;7.70;;
35330;SDS011;21441;52.190;20.910;2023-12-20T10:34:51;12.10;;;9.23;;
35330;SDS011;21441;52.190;20.910;2023-12-20T10:37:21;12.00;;;8.98;;
35330;SDS011;21441;52.190;20.910;2023-12-20T10:39:50;12.85;;;8.82;;
35330;SDS011;21441;52.190;20.910;2023-12-20T10:42:22;13.32;;;9.07;;
35330;SDS011;21441;52.190;20.910;2023-12-20T10:44:51;12.93;;;8.77;;
35330;SDS011;21441;52.190;20.910;2023-12-20T10:47:19;11.20;;;8.38;;
35330;SDS011;21441;52.190;20.910;2023-12-20T10:49:47;11.23;;;8.20;;
35330;SDS011;21441;52.190;20.910;2023-12-20T10:52:15;9.95;;;8.02;;
35330;SDS011;21441;52.190;20.910;2023-12-20T10:54:43;13.52;;;8.68;;
35330;SDS011;21441;52.190;20.910;2023-12-20T10:57:13;8.80;;;6.05;;
35330;SDS011;21441;52.190;20.910;2023-12-20T10:59:44;10.38;;;7.88;;
35330;SDS011;21441;52.190;20.910;2023-12-20T11:02:13;9.00;;;6.82;;
35330;SDS011;21441;52.190;20.910;2023-12-20T11:04:42;10.98;;;8.38;;
35330;SDS011;21441;52.190;20.910;2023-12-20T11:07:19;12.80;;;8.90;;
35330;SDS011;21441;52.190;20.910;2023-12-20T11:09:54;10.82;;;8.70;;
35330;SDS011;21441;52.190;20.910;2023-12-20T11:12:32;12.18;;;8.55;;
35330;SDS011;21441;52.190;20.910;2023-12-20T11:15:05;9.82;;;6.82;;
35330;SDS011;21441;52.190;20.910;2023-12-20T11:17:34;12.85;;;9.15;;
35330;SDS011;21441;52.190;20.910;2023-12-20T11:20:05;9.57;;;7.63;;
35330;SDS011;21441;52.190;20.910;2023-12-20T11:22:39;10.85;;;8.38;;
35330;SDS011;21441;52.190;20.910;2023-12-20T11:25:19;9.60;;;8.00;;
35330;SDS011;21441;52.190;20.910;2023-12-20T11:30:42;10.30;;;7.30;;
35330;SDS011;21441;52.190;20.910;2023-12-20T11:33:09;10.95;;;7.38;;
35330;SDS011;21441;52.190;20.910;2023-12-20T11:35:36;9.85;;;6.97;;
35330;SDS011;21441;52.190;20.910;2023-12-20T11:38:07;10.13;;;7.32;;
35330;SDS011;21441;52.190;20.910;2023-12-20T11:40:34;7.22;;;5.70;;
35330;SDS011;21441;52.190;20.910;2023-12-20T11:43:02;10.90;;;7.38;;
35330;SDS011;21441;52.190;20.910;2023-12-20T11:45:32;9.70;;;8.07;;
35330;SDS011;21441;52.190;20.910;2023-12-20T11:48:00;11.57;;;8.45;;
35330;SDS011;21441;52.190;20.910;2023-12-20T11:50:29;12.75;;;8.93;;
35330;SDS011;21441;52.190;20.910;2023-12-20T11:52:57;10.27;;;7.65;;
35330;SDS011;21441;52.190;20.910;2023-12-20T11:55:24;11.57;;;8.98;;
35330;SDS011;21441;52.190;20.910;2023-12-20T11:57:51;10.57;;;7.95;;
35330;SDS011;21441;52.190;20.910;2023-12-20T12:00:19;11.93;;;8.60;;
35330;SDS011;21441;52.190;20.910;2023-12-20T12:02:58;11.60;;;8.98;;
35330;SDS011;21441;52.190;20.910;2023-12-20T12:05:27;13.40;;;8.52;;
35330;SDS011;21441;52.190;20.910;2023-12-20T12:07:54;8.90;;;7.22;;
35330;SDS011;21441;52.190;20.910;2023-12-20T12:10:21;11.38;;;8.05;;
35330;SDS011;21441;52.190;20.910;2023-12-20T12:12:48;12.75;;;9.48;;
35330;SDS011;21441;52.190;20.910;2023-12-20T12:15:16;8.00;;;6.90;;
35330;SDS011;21441;52.190;20.910;2023-12-20T12:17:43;13.88;;;8.95;;
35330;SDS011;21441;52.190;20.910;2023-12-20T12:20:12;14.10;;;9.88;;
35330;SDS011;21441;52.190;20.910;2023-12-20T12:22:39;14.35;;;9.40;;
35330;SDS011;21441;52.190;20.910;2023-12-20T12:25:10;12.88;;;9.38;;
35330;SDS011;21441;52.190;20.910;2023-12-20T12:27:41;13.20;;;10.05;;
35330;SDS011;21441;52.190;20.910;2023-12-20T12:30:10;10.35;;;7.95;;
35330;SDS011;21441;52.190;20.910;2023-12-20T12:32:39;8.53;;;6.97;;
35330;SDS011;21441;52.190;20.910;2023-12-20T12:35:07;12.10;;;9.07;;
35330;SDS011;21441;52.190;20.910;2023-12-20T12:37:37;10.95;;;8.52;;
35330;SDS011;21441;52.190;20.910;2023-12-20T12:40:05;14.55;;;10.35;;
35330;SDS011;21441;52.190;20.910;2023-12-20T12:42:33;13.57;;;9.52;;
35330;SDS011;21441;52.190;20.910;2023-12-20T12:45:00;15.00;;;10.77;;
35330;SDS011;21441;52.190;20.910;2023-12-20T12:47:28;13.35;;;9.68;;
35330;SDS011;21441;52.190;20.910;2023-12-20T12:49:55;13.20;;;8.35;;
35330;SDS011;21441;52.190;20.910;2023-12-20T12:52:23;17.80;;;10.32;;
35330;SDS011;21441;52.190;20.910;2023-12-20T12:54:53;15.18;;;11.25;;
35330;SDS011;21441;52.190;20.910;2023-12-20T12:57:20;15.27;;;9.50;;
35330;SDS011;21441;52.190;20.910;2023-12-20T12:59:48;11.75;;;8.68;;
35330;SDS011;21441;52.190;20.910;2023-12-20T13:02:15;11.68;;;7.85;;
35330;SDS011;21441;52.190;20.910;2023-12-20T13:04:43;11.93;;;8.60;;
35330;SDS011;21441;52.190;20.910;2023-12-20T13:07:12;11.52;;;7.25;;
35330;SDS011;21441;52.190;20.910;2023-12-20T13:09:39;11.20;;;8.63;;
35330;SDS011;21441;52.190;20.910;2023-12-20T13:12:08;12.40;;;8.65;;
35330;SDS011;21441;52.190;20.910;2023-12-20T13:14:35;11.98;;;7.15;;
35330;SDS011;21441;52.190;20.910;2023-12-20T13:17:03;10.27;;;7.30;;
35330;SDS011;21441;52.190;20.910;2023-12-20T13:19:31;12.25;;;9.00;;
35330;SDS011;21441;52.190;20.910;2023-12-20T13:21:59;9.77;;;7.60;;
35330;SDS011;21441;52.190;20.910;2023-12-20T13:24:26;13.73;;;9.00;;
35330;SDS011;21441;52.190;20.910;2023-12-20T13:26:54;12.68;;;8.13;;
35330;SDS011;21441;52.190;20.910;2023-12-20T13:29:22;13.02;;;8.65;;
35330;SDS011;21441;52.190;20.910;2023-12-20T13:31:49;11.18;;;7.45;;
35330;SDS011;21441;52.190;20.910;2023-12-20T13:34:16;10.40;;;7.55;;
35330;SDS011;21441;52.190;20.910;2023-12-20T13:36:44;13.18;;;8.45;;
35330;SDS011;21441;52.190;20.910;2023-12-20T13:39:12;8.50;;;6.82;;
35330;SDS011;21441;52.190;20.910;2023-12-20T13:41:40;10.50;;;7.75;;
35330;SDS011;21441;52.190;20.910;2023-12-20T13:44:07;15.40;;;8.02;;
35330;SDS011;21441;52.190;20.910;2023-12-20T13:46:37;10.98;;;7.90;;
35330;SDS011;21441;52.190;20.910;2023-12-20T13:49:04;10.13;;;7.32;;
35330;SDS011;21441;52.190;20.910;2023-12-20T13:51:31;14.38;;;7.82;;
35330;SDS011;21441;52.190;20.910;2023-12-20T13:53:59;11.93;;;7.95;;
35330;SDS011;21441;52.190;20.910;2023-12-20T13:56:44;10.77;;;6.22;;
35330;SDS011;21441;52.190;20.910;2023-12-20T13:59:12;14.30;;;7.60;;
35330;SDS011;21441;52.190;20.910;2023-12-20T14:01:40;9.82;;;6.88;;
35330;SDS011;21441;52.190;20.910;2023-12-20T14:04:07;13.48;;;9.07;;
35330;SDS011;21441;52.190;20.910;2023-12-20T14:06:36;14.23;;;9.30;;
35330;SDS011;21441;52.190;20.910;2023-12-20T14:09:04;10.40;;;8.55;;
35330;SDS011;21441;52.190;20.910;2023-12-20T14:11:31;11.68;;;8.77;;
35330;SDS011;21441;52.190;20.910;2023-12-20T14:13:58;14.15;;;8.90;;
35330;SDS011;21441;52.190;20.910;2023-12-20T14:18:57;9.65;;;7.65;;
35330;SDS011;21441;52.190;20.910;2023-12-20T14:21:24;11.95;;;8.45;;
35330;SDS011;21441;52.190;20.910;2023-12-20T14:23:52;8.65;;;7.40;;
35330;SDS011;21441;52.190;20.910;2023-12-20T14:26:19;11.07;;;7.47;;
35330;SDS011;21441;52.190;20.910;2023-12-20T14:28:46;11.35;;;8.57;;